sensor_id;sensor_type;location;lat;lon;timestamp;pressure;altitude;pressure_sealevel;temperature;humidity
19108;BME280;9686;48.832;9.126;2023-03-19T00:02:02;97865.09;;;10.53;nan
19108;BME280;9686;48.832;9.126;2023-03-19T00:04:27;97859.13;;;10.45;nan
19108;BME280;9686;48.832;9.126;2023-03-19T00:06:53;97865.16;;;10.47;nan
19108;BME280;9686;48.832;9.126;2023-03-19T00:09:20;97867.81;;;10.44;nan
19108;BME280;9686;48.832;9.126;2023-03-19T00:11:46;97866.84;;;10.53;nan
19108;BME280;9686;48.832;9.126;2023-03-19T00:14:11;97868.47;;;10.61;nan
19108;BME280;9686;48.832;9.126;2023-03-19T00:16:37;97867.44;;;10.74;nan
19108;BME280;9686;48.832;9.126;2023-03-19T00:19:02;97863.00;;;10.82;nan
19108;BME280;9686;48.832;9.126;2023-03-19T00:21:28;97860.38;;;10.82;nan
19108;BME280;9686;48.832;9.126;2023-03-19T00:23:54;97860.50;;;10.73;nan
19108;BME280;9686;48.832;9.126;2023-03-19T00:26:25;97860.41;;;10.81;nan
19108;BME280;9686;48.832;9.126;2023-03-19T00:28:51;97858.81;;;10.71;nan
19108;BME280;9686;48.832;9.126;2023-03-19T00:31:16;97858.84;;;10.68;nan
19108;BME280;9686;48.832;9.126;2023-03-19T00:33:42;97861.44;;;10.69;nan
19108;BME280;9686;48.832;9.126;2023-03-19T00:36:08;97858.78;;;10.72;nan
19108;BME280;9686;48.832;9.126;2023-03-19T00:38:33;97867.53;;;10.65;nan
19108;BME280;9686;48.832;9.126;2023-03-19T00:41:00;97857.78;;;10.82;nan
19108;BME280;9686;48.832;9.126;2023-03-19T00:43:25;97862.91;;;10.89;nan
19108;BME280;9686;48.832;9.126;2023-03-19T00:45:51;97867.31;;;10.85;nan
19108;BME280;9686;48.832;9.126;2023-03-19T00:48:16;97866.41;;;10.88;nan
19108;BME280;9686;48.832;9.126;2023-03-19T00:50:42;97873.41;;;10.82;nan
19108;BME280;9686;48.832;9.126;2023-03-19T00:53:07;97866.66;;;10.66;nan
19108;BME280;9686;48.832;9.126;2023-03-19T00:55:32;97870.84;;;10.79;nan
19108;BME280;9686;48.832;9.126;2023-03-19T00:57:58;97863.84;;;10.85;nan
19108;BME280;9686;48.832;9.126;2023-03-19T01:00:23;97864.88;;;10.73;nan
19108;BME280;9686;48.832;9.126;2023-03-19T01:02:48;97868.41;;;10.67;nan
19108;BME280;9686;48.832;9.126;2023-03-19T01:05:14;97862.09;;;10.84;nan
19108;BME280;9686;48.832;9.126;2023-03-19T01:07:39;97870.09;;;10.71;nan
19108;BME280;9686;48.832;9.126;2023-03-19T01:10:05;97866.63;;;10.71;nan
19108;BME280;9686;48.832;9.126;2023-03-19T01:12:31;97870.13;;;10.67;nan
19108;BME280;9686;48.832;9.126;2023-03-19T01:14:56;97871.88;;;10.68;nan
19108;BME280;9686;48.832;9.126;2023-03-19T01:17:22;97876.88;;;10.85;nan
19108;BME280;9686;48.832;9.126;2023-03-19T01:19:48;97876.78;;;10.91;nan
19108;BME280;9686;48.832;9.126;2023-03-19T01:22:13;97886.34;;;10.90;nan
19108;BME280;9686;48.832;9.126;2023-03-19T01:24:40;97889.97;;;10.80;nan
19108;BME280;9686;48.832;9.126;2023-03-19T01:27:06;97894.16;;;10.92;nan
19108;BME280;9686;48.832;9.126;2023-03-19T01:29:32;97895.03;;;10.91;nan
19108;BME280;9686;48.832;9.126;2023-03-19T01:31:57;97898.38;;;11.03;nan
19108;BME280;9686;48.832;9.126;2023-03-19T01:34:22;97905.41;;;10.98;nan
19108;BME280;9686;48.832;9.126;2023-03-19T01:36:48;97901.09;;;10.94;nan
19108;BME280;9686;48.832;9.126;2023-03-19T01:39:13;97898.34;;;11.05;nan
19108;BME280;9686;48.832;9.126;2023-03-19T01:41:39;97909.63;;;11.07;nan
19108;BME280;9686;48.832;9.126;2023-03-19T01:46:48;97936.44;;;11.17;nan
19108;BME280;9686;48.832;9.126;2023-03-19T01:49:13;97934.72;;;11.16;nan
19108;BME280;9686;48.832;9.126;2023-03-19T01:51:41;97931.22;;;11.18;nan
19108;BME280;9686;48.832;9.126;2023-03-19T01:54:11;97928.69;;;11.12;nan
19108;BME280;9686;48.832;9.126;2023-03-19T01:56:38;97928.66;;;11.13;nan
19108;BME280;9686;48.832;9.126;2023-03-19T02:02:18;97934.63;;;11.25;nan
19108;BME280;9686;48.832;9.126;2023-03-19T02:04:46;97937.97;;;11.33;nan
19108;BME280;9686;48.832;9.126;2023-03-19T02:07:14;97940.63;;;11.31;nan
19108;BME280;9686;48.832;9.126;2023-03-19T02:09:40;97940.44;;;11.45;nan
19108;BME280;9686;48.832;9.126;2023-03-19T02:12:07;97945.53;;;11.53;nan
19108;BME280;9686;48.832;9.126;2023-03-19T02:14:33;97943.72;;;11.58;nan
19108;BME280;9686;48.832;9.126;2023-03-19T02:16:58;97943.84;;;11.50;nan
19108;BME280;9686;48.832;9.126;2023-03-19T02:19:36;97946.47;;;11.49;nan
19108;BME280;9686;48.832;9.126;2023-03-19T02:22:04;97960.78;;;11.20;nan
19108;BME280;9686;48.832;9.126;2023-03-19T02:24:52;97964.31;;;11.15;nan
19108;BME280;9686;48.832;9.126;2023-03-19T02:27:19;97959.31;;;10.98;nan
19108;BME280;9686;48.832;9.126;2023-03-19T02:29:44;97966.50;;;10.76;nan
19108;BME280;9686;48.832;9.126;2023-03-19T02:32:10;97963.03;;;10.74;nan
19108;BME280;9686;48.832;9.126;2023-03-19T02:34:40;97969.19;;;10.67;nan
19108;BME280;9686;48.832;9.126;2023-03-19T02:37:14;97957.16;;;10.54;nan
19108;BME280;9686;48.832;9.126;2023-03-19T02:42:08;97952.09;;;10.41;nan
19108;BME280;9686;48.832;9.126;2023-03-19T02:44:35;97956.38;;;10.45;nan
19108;BME280;9686;48.832;9.126;2023-03-19T02:47:02;97952.97;;;10.42;nan
19108;BME280;9686;48.832;9.126;2023-03-19T02:49:28;97958.97;;;10.47;nan
19108;BME280;9686;48.832;9.126;2023-03-19T02:51:53;97960.66;;;10.53;nan
19108;BME280;9686;48.832;9.126;2023-03-19T02:54:18;97959.81;;;10.50;nan
19108;BME280;9686;48.832;9.126;2023-03-19T02:56:43;97963.31;;;10.48;nan
19108;BME280;9686;48.832;9.126;2023-03-19T02:59:10;97966.00;;;10.37;nan
19108;BME280;9686;48.832;9.126;2023-03-19T03:01:35;97970.34;;;10.38;nan
19108;BME280;9686;48.832;9.126;2023-03-19T03:04:01;97981.63;;;10.39;nan
19108;BME280;9686;48.832;9.126;2023-03-19T03:06:27;97978.97;;;10.45;nan
19108;BME280;9686;48.832;9.126;2023-03-19T03:08:52;97977.94;;;10.60;nan
19108;BME280;9686;48.832;9.126;2023-03-19T03:11:17;97985.81;;;10.55;nan
19108;BME280;9686;48.832;9.126;2023-03-19T03:13:42;97989.38;;;10.46;nan
19108;BME280;9686;48.832;9.126;2023-03-19T03:16:08;97992.81;;;10.52;nan
19108;BME280;9686;48.832;9.126;2023-03-19T03:18:34;97984.03;;;10.60;nan
19108;BME280;9686;48.832;9.126;2023-03-19T03:21:00;97975.19;;;10.76;nan
19108;BME280;9686;48.832;9.126;2023-03-19T03:23:25;97971.69;;;10.77;nan
19108;BME280;9686;48.832;9.126;2023-03-19T03:25:51;97985.69;;;10.66;nan
19108;BME280;9686;48.832;9.126;2023-03-19T03:28:17;97986.69;;;10.56;nan
19108;BME280;9686;48.832;9.126;2023-03-19T03:30:43;97981.41;;;10.62;nan
19108;BME280;9686;48.832;9.126;2023-03-19T03:33:09;97975.28;;;10.64;nan
19108;BME280;9686;48.832;9.126;2023-03-19T03:35:34;97986.59;;;10.63;nan
19108;BME280;9686;48.832;9.126;2023-03-19T03:38:00;97984.00;;;10.62;nan
19108;BME280;9686;48.832;9.126;2023-03-19T03:40:25;97989.22;;;10.62;nan
19108;BME280;9686;48.832;9.126;2023-03-19T03:42:51;97997.00;;;10.66;nan
19108;BME280;9686;48.832;9.126;2023-03-19T03:45:16;97986.47;;;10.77;nan
19108;BME280;9686;48.832;9.126;2023-03-19T03:47:42;97992.56;;;10.77;nan
19108;BME280;9686;48.832;9.126;2023-03-19T03:50:07;97990.97;;;10.60;nan
19108;BME280;9686;48.832;9.126;2023-03-19T03:52:35;97992.81;;;10.50;nan
19108;BME280;9686;48.832;9.126;2023-03-19T03:55:02;98003.19;;;10.56;nan
19108;BME280;9686;48.832;9.126;2023-03-19T03:57:27;98004.00;;;10.61;nan
19108;BME280;9686;48.832;9.126;2023-03-19T03:59:53;98003.22;;;10.53;nan
19108;BME280;9686;48.832;9.126;2023-03-19T04:02:18;98002.34;;;10.53;nan
19108;BME280;9686;48.832;9.126;2023-03-19T04:04:44;98006.75;;;10.46;nan
19108;BME280;9686;48.832;9.126;2023-03-19T04:07:09;98010.16;;;10.54;nan
19108;BME280;9686;48.832;9.126;2023-03-19T04:09:34;98014.47;;;10.57;nan
19108;BME280;9686;48.832;9.126;2023-03-19T04:12:00;98020.47;;;10.63;nan
19108;BME280;9686;48.832;9.126;2023-03-19T04:14:26;98015.25;;;10.69;nan
19108;BME280;9686;48.832;9.126;2023-03-19T04:16:54;98011.81;;;10.63;nan
19108;BME280;9686;48.832;9.126;2023-03-19T04:19:20;98014.53;;;10.52;nan
19108;BME280;9686;48.832;9.126;2023-03-19T04:21:45;98017.00;;;10.64;nan
19108;BME280;9686;48.832;9.126;2023-03-19T04:24:11;98017.06;;;10.58;nan
19108;BME280;9686;48.832;9.126;2023-03-19T04:26:37;98016.22;;;10.55;nan
19108;BME280;9686;48.832;9.126;2023-03-19T04:29:03;98018.84;;;10.55;nan
19108;BME280;9686;48.832;9.126;2023-03-19T04:31:28;98030.19;;;10.49;nan
19108;BME280;9686;48.832;9.126;2023-03-19T04:33:54;98032.84;;;10.43;nan
19108;BME280;9686;48.832;9.126;2023-03-19T04:36:19;98024.91;;;10.57;nan
19108;BME280;9686;48.832;9.126;2023-03-19T04:38:45;98012.66;;;10.63;nan
19108;BME280;9686;48.832;9.126;2023-03-19T04:41:11;98016.16;;;10.61;nan
19108;BME280;9686;48.832;9.126;2023-03-19T04:43:37;98018.00;;;10.53;nan
19108;BME280;9686;48.832;9.126;2023-03-19T04:46:03;98032.81;;;10.47;nan
19108;BME280;9686;48.832;9.126;2023-03-19T04:48:28;98039.72;;;10.50;nan
19108;BME280;9686;48.832;9.126;2023-03-19T04:50:54;98034.53;;;10.50;nan
19108;BME280;9686;48.832;9.126;2023-03-19T04:53:21;98035.31;;;10.58;nan
19108;BME280;9686;48.832;9.126;2023-03-19T04:55:47;98037.03;;;10.61;nan
19108;BME280;9686;48.832;9.126;2023-03-19T04:58:13;98040.50;;;10.60;nan
19108;BME280;9686;48.832;9.126;2023-03-19T05:00:38;98038.78;;;10.59;nan
19108;BME280;9686;48.832;9.126;2023-03-19T05:03:03;98038.72;;;10.68;nan
19108;BME280;9686;48.832;9.126;2023-03-19T05:05:29;98043.84;;;10.77;nan
19108;BME280;9686;48.832;9.126;2023-03-19T05:07:55;98041.22;;;10.78;nan
19108;BME280;9686;48.832;9.126;2023-03-19T05:10:21;98050.00;;;10.68;nan
19108;BME280;9686;48.832;9.126;2023-03-19T05:12:47;98049.13;;;10.66;nan
19108;BME280;9686;48.832;9.126;2023-03-19T05:15:13;98041.31;;;10.65;nan
19108;BME280;9686;48.832;9.126;2023-03-19T05:17:39;98052.63;;;10.64;nan
19108;BME280;9686;48.832;9.126;2023-03-19T05:20:04;98048.25;;;10.70;nan
19108;BME280;9686;48.832;9.126;2023-03-19T05:22:30;98059.59;;;10.62;nan
19108;BME280;9686;48.832;9.126;2023-03-19T05:24:55;98064.78;;;10.66;nan
19108;BME280;9686;48.832;9.126;2023-03-19T05:27:21;98061.34;;;10.61;nan
19108;BME280;9686;48.832;9.126;2023-03-19T05:29:47;98063.03;;;10.68;nan
19108;BME280;9686;48.832;9.126;2023-03-19T05:32:12;98064.78;;;10.68;nan
19108;BME280;9686;48.832;9.126;2023-03-19T05:34:37;98048.13;;;10.81;nan
19108;BME280;9686;48.832;9.126;2023-03-19T05:37:03;98046.47;;;10.75;nan
19108;BME280;9686;48.832;9.126;2023-03-19T05:39:28;98047.41;;;10.65;nan
19108;BME280;9686;48.832;9.126;2023-03-19T05:41:54;98049.16;;;10.65;nan
19108;BME280;9686;48.832;9.126;2023-03-19T05:44:19;98051.75;;;10.65;nan
19108;BME280;9686;48.832;9.126;2023-03-19T05:46:45;98058.66;;;10.73;nan
19108;BME280;9686;48.832;9.126;2023-03-19T05:49:11;98066.53;;;10.63;nan
19108;BME280;9686;48.832;9.126;2023-03-19T05:51:36;98063.19;;;10.52;nan
19108;BME280;9686;48.832;9.126;2023-03-19T05:54:01;98075.22;;;10.65;nan
19108;BME280;9686;48.832;9.126;2023-03-19T05:56:28;98076.94;;;10.69;nan
19108;BME280;9686;48.832;9.126;2023-03-19T05:58:53;98063.88;;;10.70;nan
19108;BME280;9686;48.832;9.126;2023-03-19T06:01:19;98076.94;;;10.64;nan
19108;BME280;9686;48.832;9.126;2023-03-19T06:03:44;98078.63;;;10.73;nan
19108;BME280;9686;48.832;9.126;2023-03-19T06:06:10;98079.50;;;10.73;nan
19108;BME280;9686;48.832;9.126;2023-03-19T06:08:36;98081.13;;;10.85;nan
19108;BME280;9686;48.832;9.126;2023-03-19T06:11:01;98070.75;;;10.80;nan
19108;BME280;9686;48.832;9.126;2023-03-19T06:13:26;98078.56;;;10.80;nan
19108;BME280;9686;48.832;9.126;2023-03-19T06:15:52;98086.44;;;10.74;nan
19108;BME280;9686;48.832;9.126;2023-03-19T06:18:17;98084.66;;;10.79;nan
19108;BME280;9686;48.832;9.126;2023-03-19T06:20:43;98084.69;;;10.75;nan
19108;BME280;9686;48.832;9.126;2023-03-19T06:23:10;98090.72;;;10.81;nan
19108;BME280;9686;48.832;9.126;2023-03-19T06:25:35;98083.72;;;10.85;nan
19108;BME280;9686;48.832;9.126;2023-03-19T06:28:01;98092.41;;;10.86;nan
19108;BME280;9686;48.832;9.126;2023-03-19T06:30:26;98089.72;;;10.98;nan
19108;BME280;9686;48.832;9.126;2023-03-19T06:32:52;98088.00;;;10.95;nan
19108;BME280;9686;48.832;9.126;2023-03-19T06:35:17;98089.72;;;10.96;nan
19108;BME280;9686;48.832;9.126;2023-03-19T06:37:42;98088.81;;;11.00;nan
19108;BME280;9686;48.832;9.126;2023-03-19T06:40:09;98084.47;;;11.01;nan
19108;BME280;9686;48.832;9.126;2023-03-19T06:42:34;98092.34;;;10.95;nan
19108;BME280;9686;48.832;9.126;2023-03-19T06:44:59;98075.84;;;10.94;nan
19108;BME280;9686;48.832;9.126;2023-03-19T06:47:25;98078.41;;;10.99;nan
19108;BME280;9686;48.832;9.126;2023-03-19T06:49:51;98081.66;;;11.18;nan
19108;BME280;9686;48.832;9.126;2023-03-19T06:52:16;98083.41;;;11.17;nan
19108;BME280;9686;48.832;9.126;2023-03-19T06:54:41;98086.94;;;11.13;nan
19108;BME280;9686;48.832;9.126;2023-03-19T06:57:06;98078.16;;;11.23;nan
19108;BME280;9686;48.832;9.126;2023-03-19T06:59:32;98083.38;;;11.19;nan
19108;BME280;9686;48.832;9.126;2023-03-19T07:01:57;98084.13;;;11.33;nan
19108;BME280;9686;48.832;9.126;2023-03-19T07:04:22;98084.13;;;11.31;nan
19108;BME280;9686;48.832;9.126;2023-03-19T07:06:48;98088.50;;;11.29;nan
19108;BME280;9686;48.832;9.126;2023-03-19T07:09:13;98092.78;;;11.35;nan
19108;BME280;9686;48.832;9.126;2023-03-19T07:11:38;98083.19;;;11.38;nan
19108;BME280;9686;48.832;9.126;2023-03-19T07:14:04;98090.16;;;11.36;nan
19108;BME280;9686;48.832;9.126;2023-03-19T07:16:29;98086.56;;;11.48;nan
19108;BME280;9686;48.832;9.126;2023-03-19T07:18:54;98080.44;;;11.52;nan
19108;BME280;9686;48.832;9.126;2023-03-19T07:21:21;98087.47;;;11.46;nan
19108;BME280;9686;48.832;9.126;2023-03-19T07:23:46;98085.59;;;11.55;nan
19108;BME280;9686;48.832;9.126;2023-03-19T07:26:11;98079.53;;;11.53;nan
19108;BME280;9686;48.832;9.126;2023-03-19T07:28:37;98082.16;;;11.53;nan
19108;BME280;9686;48.832;9.126;2023-03-19T07:31:03;98083.75;;;11.63;nan
19108;BME280;9686;48.832;9.126;2023-03-19T07:33:28;98082.75;;;11.75;nan
19108;BME280;9686;48.832;9.126;2023-03-19T07:35:53;98085.28;;;11.83;nan
19108;BME280;9686;48.832;9.126;2023-03-19T07:38:18;98094.81;;;11.85;nan
19108;BME280;9686;48.832;9.126;2023-03-19T07:40:44;98086.00;;;11.94;nan
19108;BME280;9686;48.832;9.126;2023-03-19T07:43:09;98085.09;;;11.98;nan
19108;BME280;9686;48.832;9.126;2023-03-19T07:45:34;98091.97;;;12.05;nan
19108;BME280;9686;48.832;9.126;2023-03-19T07:48:00;98091.78;;;12.16;nan
19108;BME280;9686;48.832;9.126;2023-03-19T07:50:29;98096.13;;;12.17;nan
19108;BME280;9686;48.832;9.126;2023-03-19T07:52:55;98092.53;;;12.27;nan
19108;BME280;9686;48.832;9.126;2023-03-19T07:55:21;98087.03;;;12.44;nan
19108;BME280;9686;48.832;9.126;2023-03-19T07:57:47;98091.09;;;12.63;nan
19108;BME280;9686;48.832;9.126;2023-03-19T08:00:13;98098.16;;;12.58;nan
19108;BME280;9686;48.832;9.126;2023-03-19T08:02:39;98089.13;;;12.74;nan
19108;BME280;9686;48.832;9.126;2023-03-19T08:05:04;98089.19;;;12.71;nan
19108;BME280;9686;48.832;9.126;2023-03-19T08:07:30;98087.38;;;12.76;nan
19108;BME280;9686;48.832;9.126;2023-03-19T08:09:56;98077.50;;;12.92;nan
19108;BME280;9686;48.832;9.126;2023-03-19T08:12:22;98070.50;;;12.94;nan
19108;BME280;9686;48.832;9.126;2023-03-19T08:14:48;98068.63;;;13.02;nan
19108;BME280;9686;48.832;9.126;2023-03-19T08:17:13;98073.75;;;13.08;nan
19108;BME280;9686;48.832;9.126;2023-03-19T08:19:38;98076.41;;;13.05;nan
19108;BME280;9686;48.832;9.126;2023-03-19T08:22:04;98078.03;;;13.12;nan
19108;BME280;9686;48.832;9.126;2023-03-19T08:24:29;98071.84;;;13.18;nan
19108;BME280;9686;48.832;9.126;2023-03-19T08:26:54;98082.31;;;13.16;nan
19108;BME280;9686;48.832;9.126;2023-03-19T08:29:20;98075.22;;;13.23;nan
19108;BME280;9686;48.832;9.126;2023-03-19T08:31:45;98077.50;;;13.41;nan
19108;BME280;9686;48.832;9.126;2023-03-19T08:34:11;98073.88;;;13.48;nan
19108;BME280;9686;48.832;9.126;2023-03-19T08:36:36;98073.97;;;13.44;nan
19108;BME280;9686;48.832;9.126;2023-03-19T08:39:02;98082.41;;;13.58;nan
19108;BME280;9686;48.832;9.126;2023-03-19T08:41:28;98077.13;;;13.61;nan
19108;BME280;9686;48.832;9.126;2023-03-19T08:43:54;98068.53;;;13.54;nan
19108;BME280;9686;48.832;9.126;2023-03-19T08:46:19;98079.78;;;13.60;nan
19108;BME280;9686;48.832;9.126;2023-03-19T08:48:44;98078.13;;;13.52;nan
19108;BME280;9686;48.832;9.126;2023-03-19T08:51:10;98078.97;;;13.56;nan
19108;BME280;9686;48.832;9.126;2023-03-19T08:53:36;98078.88;;;13.61;nan
19108;BME280;9686;48.832;9.126;2023-03-19T08:56:04;98083.00;;;13.71;nan
19108;BME280;9686;48.832;9.126;2023-03-19T08:58:30;98092.47;;;13.78;nan
19108;BME280;9686;48.832;9.126;2023-03-19T09:01:07;98084.56;;;13.81;nan
19108;BME280;9686;48.832;9.126;2023-03-19T09:03:34;98090.22;;;14.01;nan
19108;BME280;9686;48.832;9.126;2023-03-19T09:06:01;98089.00;;;14.17;nan
19108;BME280;9686;48.832;9.126;2023-03-19T09:08:27;98082.50;;;14.35;nan
19108;BME280;9686;48.832;9.126;2023-03-19T09:10:54;98089.84;;;14.57;nan
19108;BME280;9686;48.832;9.126;2023-03-19T09:13:19;98080.56;;;14.79;nan
19108;BME280;9686;48.832;9.126;2023-03-19T09:15:45;98084.66;;;14.91;nan
19108;BME280;9686;48.832;9.126;2023-03-19T09:18:10;98086.56;;;14.86;nan
19108;BME280;9686;48.832;9.126;2023-03-19T09:20:36;98088.72;;;15.02;nan
19108;BME280;9686;48.832;9.126;2023-03-19T09:23:01;98082.13;;;15.20;nan
19108;BME280;9686;48.832;9.126;2023-03-19T09:25:26;98081.75;;;15.35;nan
19108;BME280;9686;48.832;9.126;2023-03-19T09:27:52;98074.72;;;15.36;nan
19108;BME280;9686;48.832;9.126;2023-03-19T09:30:17;98077.44;;;15.31;nan
19108;BME280;9686;48.832;9.126;2023-03-19T09:32:42;98074.06;;;15.28;nan
19108;BME280;9686;48.832;9.126;2023-03-19T09:35:08;98074.81;;;15.31;nan
19108;BME280;9686;48.832;9.126;2023-03-19T09:37:33;98079.31;;;15.28;nan
19108;BME280;9686;48.832;9.126;2023-03-19T09:39:58;98083.75;;;15.26;nan
19108;BME280;9686;48.832;9.126;2023-03-19T09:45:17;98075.44;;;15.73;nan
19108;BME280;9686;48.832;9.126;2023-03-19T09:47:44;98075.97;;;15.85;nan
19108;BME280;9686;48.832;9.126;2023-03-19T09:50:17;98075.94;;;15.86;nan
19108;BME280;9686;48.832;9.126;2023-03-19T09:52:48;98072.75;;;16.04;nan
19108;BME280;9686;48.832;9.126;2023-03-19T09:55:18;98071.00;;;16.05;nan
19108;BME280;9686;48.832;9.126;2023-03-19T09:57:53;98072.22;;;16.23;nan
19108;BME280;9686;48.832;9.126;2023-03-19T10:00:20;98067.34;;;16.09;nan
19108;BME280;9686;48.832;9.126;2023-03-19T10:02:55;98066.34;;;16.15;nan
19108;BME280;9686;48.832;9.126;2023-03-19T10:08:22;98063.50;;;16.21;nan
19108;BME280;9686;48.832;9.126;2023-03-19T10:13:37;98054.84;;;16.45;nan
19108;BME280;9686;48.832;9.126;2023-03-19T10:16:28;98051.09;;;16.52;nan
19108;BME280;9686;48.832;9.126;2023-03-19T10:18:57;98049.38;;;16.51;nan
19108;BME280;9686;48.832;9.126;2023-03-19T10:21:40;98056.75;;;16.94;nan
19108;BME280;9686;48.832;9.126;2023-03-19T10:26:44;98062.22;;;17.13;nan
19108;BME280;9686;48.832;9.126;2023-03-19T10:29:20;98056.66;;;17.22;nan
19108;BME280;9686;48.832;9.126;2023-03-19T10:32:04;98051.63;;;17.40;nan
19108;BME280;9686;48.832;9.126;2023-03-19T10:34:44;98047.59;;;17.54;nan
19108;BME280;9686;48.832;9.126;2023-03-19T10:37:16;98042.31;;;17.54;nan
19108;BME280;9686;48.832;9.126;2023-03-19T10:39:44;98040.56;;;17.30;nan
19108;BME280;9686;48.832;9.126;2023-03-19T10:45:17;98028.72;;;17.17;nan
19108;BME280;9686;48.832;9.126;2023-03-19T10:47:44;98032.72;;;17.29;nan
19108;BME280;9686;48.832;9.126;2023-03-19T10:50:18;98036.00;;;17.35;nan
19108;BME280;9686;48.832;9.126;2023-03-19T10:52:49;98029.00;;;17.34;nan
19108;BME280;9686;48.832;9.126;2023-03-19T10:55:22;98031.13;;;17.24;nan
19108;BME280;9686;48.832;9.126;2023-03-19T10:57:49;98022.59;;;17.18;nan
19108;BME280;9686;48.832;9.126;2023-03-19T11:00:22;98027.84;;;17.18;nan
19108;BME280;9686;48.832;9.126;2023-03-19T11:02:51;98024.59;;;17.10;nan
19108;BME280;9686;48.832;9.126;2023-03-19T11:05:27;98028.53;;;17.23;nan
19108;BME280;9686;48.832;9.126;2023-03-19T11:07:59;98023.56;;;17.39;nan
19108;BME280;9686;48.832;9.126;2023-03-19T11:10:27;98021.53;;;17.47;nan
19108;BME280;9686;48.832;9.126;2023-03-19T11:12:56;98017.13;;;17.47;nan
19108;BME280;9686;48.832;9.126;2023-03-19T11:15:27;98018.09;;;17.45;nan
19108;BME280;9686;48.832;9.126;2023-03-19T11:17:58;98023.72;;;17.34;nan
19108;BME280;9686;48.832;9.126;2023-03-19T11:20:35;98020.38;;;17.06;nan
19108;BME280;9686;48.832;9.126;2023-03-19T11:23:05;98024.72;;;17.07;nan
19108;BME280;9686;48.832;9.126;2023-03-19T11:25:40;98027.50;;;17.27;nan
19108;BME280;9686;48.832;9.126;2023-03-19T11:28:15;98015.59;;;17.40;nan
19108;BME280;9686;48.832;9.126;2023-03-19T11:39:27;98012.47;;;17.54;nan
19108;BME280;9686;48.832;9.126;2023-03-19T11:44:52;98006.41;;;17.99;nan
19108;BME280;9686;48.832;9.126;2023-03-19T11:53:22;97992.09;;;18.48;nan
19108;BME280;9686;48.832;9.126;2023-03-19T11:55:59;97985.63;;;18.77;nan
19108;BME280;9686;48.832;9.126;2023-03-19T12:07:22;97975.69;;;19.23;nan
19108;BME280;9686;48.832;9.126;2023-03-19T12:19:06;97975.69;;;20.72;nan
19108;BME280;9686;48.832;9.126;2023-03-19T12:32:24;97977.28;;;19.46;nan
19108;BME280;9686;48.832;9.126;2023-03-19T12:35:01;97978.00;;;19.30;nan
19108;BME280;9686;48.832;9.126;2023-03-19T12:37:59;97992.03;;;19.12;nan
19108;BME280;9686;48.832;9.126;2023-03-19T12:40:33;97982.91;;;18.36;nan
19108;BME280;9686;48.832;9.126;2023-03-19T12:43:05;97992.50;;;17.72;nan
19108;BME280;9686;48.832;9.126;2023-03-19T12:45:37;97990.81;;;17.22;nan
19108;BME280;9686;48.832;9.126;2023-03-19T12:48:10;97991.09;;;16.88;nan
19108;BME280;9686;48.832;9.126;2023-03-19T12:50:39;97992.50;;;16.47;nan
19108;BME280;9686;48.832;9.126;2023-03-19T12:53:16;97998.19;;;16.33;nan
19108;BME280;9686;48.832;9.126;2023-03-19T12:55:47;97995.97;;;16.21;nan
19108;BME280;9686;48.832;9.126;2023-03-19T12:58:25;97998.47;;;15.98;nan
19108;BME280;9686;48.832;9.126;2023-03-19T13:01:05;98016.03;;;15.68;nan
19108;BME280;9686;48.832;9.126;2023-03-19T13:03:51;98010.47;;;15.48;nan
19108;BME280;9686;48.832;9.126;2023-03-19T13:06:22;98010.84;;;15.03;nan
19108;BME280;9686;48.832;9.126;2023-03-19T13:09:08;98017.13;;;14.63;nan
19108;BME280;9686;48.832;9.126;2023-03-19T13:12:04;98027.34;;;14.38;nan
19108;BME280;9686;48.832;9.126;2023-03-19T13:19:50;98031.13;;;14.25;nan
19108;BME280;9686;48.832;9.126;2023-03-19T13:22:26;98033.06;;;14.18;nan
19108;BME280;9686;48.832;9.126;2023-03-19T13:24:54;98036.25;;;13.93;nan
19108;BME280;9686;48.832;9.126;2023-03-19T13:32:37;98025.41;;;14.09;nan
19108;BME280;9686;48.832;9.126;2023-03-19T13:35:25;98021.06;;;14.08;nan
19108;BME280;9686;48.832;9.126;2023-03-19T13:38:01;98023.22;;;14.27;nan
19108;BME280;9686;48.832;9.126;2023-03-19T13:40:41;98026.03;;;14.19;nan
19108;BME280;9686;48.832;9.126;2023-03-19T13:48:37;98009.97;;;14.34;nan
19108;BME280;9686;48.832;9.126;2023-03-19T13:51:25;98007.38;;;14.33;nan
19108;BME280;9686;48.832;9.126;2023-03-19T13:54:14;98004.63;;;14.37;nan
19108;BME280;9686;48.832;9.126;2023-03-19T14:02:02;98015.53;;;14.58;nan
19108;BME280;9686;48.832;9.126;2023-03-19T14:04:59;98006.28;;;14.77;nan
19108;BME280;9686;48.832;9.126;2023-03-19T14:07:28;98019.41;;;14.77;nan
19108;BME280;9686;48.832;9.126;2023-03-19T14:10:02;98012.97;;;14.89;nan
19108;BME280;9686;48.832;9.126;2023-03-19T14:12:40;98005.03;;;14.92;nan
19108;BME280;9686;48.832;9.126;2023-03-19T14:17:34;97997.13;;;15.24;nan
19108;BME280;9686;48.832;9.126;2023-03-19T14:20:23;97999.19;;;15.44;nan
19108;BME280;9686;48.832;9.126;2023-03-19T14:25:55;97993.91;;;15.75;nan
19108;BME280;9686;48.832;9.126;2023-03-19T14:30:57;97991.75;;;15.89;nan
19108;BME280;9686;48.832;9.126;2023-03-19T14:33:51;97989.00;;;16.20;nan
19108;BME280;9686;48.832;9.126;2023-03-19T14:36:19;97994.88;;;16.28;nan
19108;BME280;9686;48.832;9.126;2023-03-19T14:38:54;97998.50;;;16.24;nan
19108;BME280;9686;48.832;9.126;2023-03-19T14:41:22;97995.22;;;16.18;nan
19108;BME280;9686;48.832;9.126;2023-03-19T14:44:17;98003.94;;;15.92;nan
19108;BME280;9686;48.832;9.126;2023-03-19T14:47:18;98004.69;;;15.95;nan
19108;BME280;9686;48.832;9.126;2023-03-19T14:53:01;98001.41;;;15.27;nan
19108;BME280;9686;48.832;9.126;2023-03-19T14:55:33;98005.81;;;15.26;nan
19108;BME280;9686;48.832;9.126;2023-03-19T14:58:00;98011.09;;;15.25;nan
19108;BME280;9686;48.832;9.126;2023-03-19T15:00:26;98005.31;;;15.14;nan
19108;BME280;9686;48.832;9.126;2023-03-19T15:02:51;98005.53;;;15.04;nan
19108;BME280;9686;48.832;9.126;2023-03-19T15:07:49;98005.94;;;14.91;nan
19108;BME280;9686;48.832;9.126;2023-03-19T15:10:19;98005.84;;;14.94;nan
19108;BME280;9686;48.832;9.126;2023-03-19T15:16:06;98014.16;;;14.77;nan
19108;BME280;9686;48.832;9.126;2023-03-19T15:18:34;98014.88;;;14.82;nan
19108;BME280;9686;48.832;9.126;2023-03-19T15:21:02;98012.00;;;14.93;nan
19108;BME280;9686;48.832;9.126;2023-03-19T15:23:27;98013.97;;;15.17;nan
19108;BME280;9686;48.832;9.126;2023-03-19T15:25:55;98015.59;;;15.21;nan